Time;durP1;ratioP1;P1;durP2;ratioP2;P2;SDS_P1;SDS_P2;PMS_P1;PMS_P2;Temp;Humidity;BMP_temperature;BMP_pressure;BME280_temperature;BME280_humidity;BME280_pressure;Samples;Min_cycle;Max_cycle;Signal;HPM_P1;HPM_P2
2023/05/21 00:00:29;;;;;;;13.18;5.78;;;;;;;17.20;72.56;101227.03;4977250;28;20030;-84
2023/05/21 00:02:56;;;;;;;8.65;4.80;;;;;;;17.11;72.70;101215.44;4976854;28;20027;-84
2023/05/21 00:05:22;;;;;;;7.22;5.35;;;;;;;17.06;72.80;101216.69;4961002;28;20496;-85
2023/05/21 00:07:48;;;;;;;7.10;5.15;;;;;;;16.98;73.67;101213.75;4994264;28;20045;-85
2023/05/21 00:10:13;;;;;;;9.02;4.88;;;;;;;16.91;73.79;101206.31;4976788;28;20109;-84
2023/05/21 00:12:40;;;;;;;9.05;5.78;;;;;;;16.95;74.15;101219.19;4976940;28;20030;-84
2023/05/21 00:15:06;;;;;;;9.10;5.53;;;;;;;16.87;74.18;101207.44;4960980;28;20034;-85
2023/05/21 00:17:33;;;;;;;6.15;4.25;;;;;;;16.89;74.11;101209.94;4977293;28;20492;-84
2023/05/21 00:19:58;;;;;;;6.90;4.68;;;;;;;16.75;74.56;101218.72;4975609;28;20030;-84
2023/05/21 00:22:24;;;;;;;6.35;4.28;;;;;;;16.73;74.53;101210.13;4992323;28;20033;-85
2023/05/21 00:24:49;;;;;;;7.18;4.82;;;;;;;16.73;74.35;101212.75;4992643;28;20038;-85
2023/05/21 00:27:15;;;;;;;10.63;4.60;;;;;;;16.70;74.63;101207.72;4992756;28;20034;-84
2023/05/21 00:29:40;;;;;;;6.82;4.68;;;;;;;16.64;74.40;101188.03;4992307;28;20073;-84
2023/05/21 00:32:06;;;;;;;6.93;5.25;;;;;;;16.71;74.63;101196.31;4976271;28;20435;-84
2023/05/21 00:34:31;;;;;;;6.32;4.53;;;;;;;16.73;73.99;101181.41;4992509;28;20092;-84
2023/05/21 00:36:57;;;;;;;8.52;5.47;;;;;;;16.70;74.18;101188.59;5008397;28;20495;-84
2023/05/21 00:39:23;;;;;;;12.68;4.05;;;;;;;16.62;74.55;101183.84;4992244;28;20439;-84
2023/05/21 00:41:48;;;;;;;7.18;4.47;;;;;;;16.48;74.70;101168.22;4976307;28;20035;-84
2023/05/21 00:44:15;;;;;;;6.95;4.93;;;;;;;16.54;74.68;101180.91;4992537;28;20432;-84
2023/05/21 00:46:41;;;;;;;8.05;4.60;;;;;;;16.43;75.24;101172.91;4992149;28;20026;-84
2023/05/21 00:49:06;;;;;;;7.95;4.95;;;;;;;16.42;75.42;101181.66;4976420;28;20030;-84
2023/05/21 00:51:32;;;;;;;8.73;4.78;;;;;;;16.36;75.64;101175.09;4992059;28;20042;-84
2023/05/21 00:53:57;;;;;;;9.20;5.05;;;;;;;16.38;75.39;101185.41;4976394;28;20041;-84
2023/05/21 00:56:23;;;;;;;8.02;5.18;;;;;;;16.31;75.77;101180.59;4959713;28;20034;-84
2023/05/21 00:58:50;;;;;;;10.68;5.68;;;;;;;16.25;75.91;101170.56;4992383;28;20423;-84
2023/05/21 01:01:17;;;;;;;9.25;5.60;;;;;;;16.09;76.44;101141.13;4993378;28;20034;-84
2023/05/21 01:03:42;;;;;;;6.68;4.72;;;;;;;16.17;76.42;101151.94;4993153;28;20487;-84
2023/05/21 01:06:08;;;;;;;8.07;5.10;;;;;;;16.24;76.25;101174.09;4975973;28;20045;-84
2023/05/21 01:08:35;;;;;;;6.95;4.93;;;;;;;16.25;75.89;101180.16;4991763;28;20078;-84
2023/05/21 01:11:01;;;;;;;8.43;5.72;;;;;;;15.96;76.20;101154.13;4992087;28;20038;-84
2023/05/21 01:13:26;;;;;;;6.53;4.85;;;;;;;16.02;76.93;101178.97;4959498;28;20540;-84
2023/05/21 01:15:52;;;;;;;9.55;5.15;;;;;;;15.94;77.67;101181.25;4959511;28;20029;-84
2023/05/21 01:18:18;;;;;;;7.40;4.70;;;;;;;15.90;77.92;101172.75;4975587;28;20065;-84
2023/05/21 01:20:46;;;;;;;7.85;5.13;;;;;;;15.72;78.38;101163.47;4976030;28;20045;-84
2023/05/21 01:23:18;;;;;;;7.05;4.95;;;;;;;15.78;78.41;101170.94;4975570;28;20432;-84
2023/05/21 01:25:44;;;;;;;8.88;5.13;;;;;;;15.75;79.14;101178.94;4975280;28;20033;-84
2023/05/21 01:28:09;;;;;;;8.70;5.38;;;;;;;15.78;78.86;101163.94;4975315;28;20038;-84
2023/05/21 01:30:35;;;;;;;8.15;5.47;;;;;;;15.78;79.07;101163.94;4990938;28;20088;-84
2023/05/21 01:33:25;;;;;;;12.80;5.68;;;;;;;16.00;78.25;101175.63;4975144;28;20073;-83
2023/05/21 01:36:05;;;;;;;12.45;5.75;;;;;;;15.98;78.00;101173.13;4992915;28;20046;-84
2023/05/21 01:38:42;;;;;;;8.57;5.18;;;;;;;15.96;78.05;101168.94;4959223;28;20026;-84
2023/05/21 01:41:11;;;;;;;6.38;5.03;;;;;;;15.91;77.92;101165.78;4974983;28;20081;-84
2023/05/21 01:43:38;;;;;;;8.30;4.40;;;;;;;15.83;77.84;101153.22;4958645;28;20085;-84
2023/05/21 01:46:04;;;;;;;6.22;5.07;;;;;;;15.80;77.52;101153.41;4958998;28;20041;-84
2023/05/21 01:48:29;;;;;;;8.55;5.43;;;;;;;15.74;78.15;101159.00;4958862;28;20025;-84
2023/05/21 01:50:57;;;;;;;9.38;5.10;;;;;;;15.71;78.16;101161.78;4974982;28;20026;-84
2023/05/21 01:53:22;;;;;;;8.75;4.70;;;;;;;15.68;78.06;101170.66;4974794;28;20062;-84
2023/05/21 01:55:48;;;;;;;6.60;5.22;;;;;;;15.65;78.14;101173.47;4990700;28;20058;-84
2023/05/21 01:58:17;;;;;;;7.97;5.63;;;;;;;15.61;78.44;101171.94;4974830;28;20480;-84
2023/05/21 02:00:44;;;;;;;8.73;5.25;;;;;;;15.44;78.97;101154.72;4975243;28;20022;-83
2023/05/21 02:03:10;;;;;;;7.75;5.65;;;;;;;15.48;79.45;101171.84;4974832;28;20057;-84
2023/05/21 02:05:35;;;;;;;8.20;5.20;;;;;;;15.45;78.85;101163.38;4990769;28;20495;-84
2023/05/21 02:08:01;;;;;;;11.95;5.32;;;;;;;15.48;78.93;101173.63;4990499;28;20085;-84
2023/05/21 02:10:26;;;;;;;7.25;4.78;;;;;;;15.34;78.38;101161.44;4992137;28;20034;-84
2023/05/21 02:12:51;;;;;;;6.60;4.78;;;;;;;15.16;78.80;101158.13;4974427;28;20085;-84
2023/05/21 02:15:18;;;;;;;8.32;5.30;;;;;;;15.20;78.84;101169.22;5006926;28;20038;-84
2023/05/21 02:17:44;;;;;;;6.80;4.85;;;;;;;15.07;79.30;101174.31;4990584;28;20027;-84
2023/05/21 02:20:10;;;;;;;7.07;5.20;;;;;;;14.95;79.99;101164.63;4974475;28;20061;-84
2023/05/21 02:22:46;;;;;;;8.23;4.85;;;;;;;15.11;79.76;101170.59;4974258;28;20408;-84
2023/05/21 02:25:12;;;;;;;7.93;5.45;;;;;;;15.27;79.41;101185.34;4958264;28;20176;-84
2023/05/21 02:27:38;;;;;;;10.25;6.22;;;;;;;15.34;79.50;101190.09;4958248;28;20033;-84
2023/05/21 02:30:04;;;;;;;8.95;5.43;;;;;;;15.30;79.39;101180.75;4990088;28;20113;-85
2023/05/21 02:32:33;;;;;;;11.60;6.70;;;;;;;15.31;78.79;101186.81;4990456;28;20496;-84
2023/05/21 02:34:59;;;;;;;11.82;7.30;;;;;;;15.34;78.62;101190.09;4974687;28;20412;-84
2023/05/21 02:37:28;;;;;;;13.50;8.15;;;;;;;15.27;78.25;101180.13;4957888;28;20085;-84
2023/05/21 02:39:54;;;;;;;10.98;7.95;;;;;;;15.19;77.81;101178.81;4990509;28;20028;-84
2023/05/21 02:42:20;;;;;;;17.15;8.73;;;;;;;15.24;78.49;101190.72;4973504;28;20117;-84
2023/05/21 02:44:46;;;;;;;15.65;9.52;;;;;;;15.26;78.45;101189.72;4990361;28;20476;-84
2023/05/21 02:47:11;;;;;;;10.10;7.50;;;;;;;15.07;78.26;101158.69;4990327;28;20033;-84
2023/05/21 02:49:37;;;;;;;14.10;9.30;;;;;;;15.05;78.42;101157.94;4990282;28;20070;-84
2023/05/21 02:52:03;;;;;;;13.30;8.82;;;;;;;15.13;78.25;101173.94;4974207;28;20056;-83
2023/05/21 02:54:28;;;;;;;11.98;8.38;;;;;;;15.19;78.69;101178.81;4990482;28;20030;-84
2023/05/21 02:56:54;;;;;;;16.00;8.63;;;;;;;15.12;78.68;101172.25;4989884;28;20039;-85
2023/05/21 02:59:19;;;;;;;12.98;8.50;;;;;;;15.13;78.70;101173.94;4990153;28;20034;-84
2023/05/21 03:01:45;;;;;;;14.20;8.90;;;;;;;15.09;79.40;101179.44;4973886;28;20031;-85
2023/05/21 03:04:10;;;;;;;19.27;9.07;;;;;;;15.01;79.85;101174.66;4991298;28;20030;-84
2023/05/21 03:06:36;;;;;;;11.45;6.80;;;;;;;14.91;79.54;101168.31;4990352;28;20034;-85
2023/05/21 03:09:02;;;;;;;13.75;6.80;;;;;;;14.93;80.02;101184.69;4989670;28;20034;-84
2023/05/21 03:11:28;;;;;;;10.27;6.95;;;;;;;14.92;80.26;101194.28;4973952;28;20484;-84
2023/05/21 03:13:53;;;;;;;12.10;6.93;;;;;;;14.78;80.26;101177.78;4973526;28;20085;-84
2023/05/21 03:16:18;;;;;;;13.38;8.07;;;;;;;14.85;80.74;101192.13;4989973;28;20033;-84
2023/05/21 03:18:44;;;;;;;11.80;7.35;;;;;;;14.72;80.49;101173.75;4973577;28;20495;-84
2023/05/21 03:21:12;;;;;;;9.38;5.95;;;;;;;14.84;79.61;101188.66;4973821;28;20022;-84
2023/05/21 03:23:38;;;;;;;8.75;5.88;;;;;;;14.77;79.85;101187.38;4974165;28;20026;-84
2023/05/21 03:26:03;;;;;;;10.23;5.95;;;;;;;14.61;79.81;101174.38;4973676;28;20042;-84
2023/05/21 03:28:30;;;;;;;9.57;6.18;;;;;;;14.66;79.94;101196.72;4990126;28;20062;-84
2023/05/21 03:30:55;;;;;;;8.45;6.05;;;;;;;14.58;79.79;101179.75;4973356;28;20471;-84
2023/05/21 03:33:21;;;;;;;9.88;6.10;;;;;;;14.56;80.16;101194.63;4989523;28;20030;-84
2023/05/21 03:35:46;;;;;;;9.02;5.60;;;;;;;14.53;80.12;101184.38;4973596;28;20466;-84
2023/05/21 03:38:12;;;;;;;9.43;6.03;;;;;;;14.35;80.39;101170.63;4973597;28;20030;-84
2023/05/21 03:40:37;;;;;;;14.50;5.63;;;;;;;14.51;80.02;101196.66;4957500;28;20566;-84
2023/05/21 03:43:03;;;;;;;8.95;5.95;;;;;;;14.44;80.37;101190.06;4973401;28;20034;-84
2023/05/21 03:45:28;;;;;;;8.48;6.32;;;;;;;14.53;80.11;101183.53;4990839;28;20030;-83
2023/05/21 03:47:53;;;;;;;10.10;6.07;;;;;;;14.52;79.85;101195.72;4957433;28;20088;-83
2023/05/21 03:50:19;;;;;;;8.25;5.78;;;;;;;14.47;80.31;101194.31;4957270;28;20038;-84
2023/05/21 03:52:44;;;;;;;9.30;5.80;;;;;;;14.49;80.11;101187.25;4973695;28;20484;-84
2023/05/21 03:55:10;;;;;;;11.25;6.50;;;;;;;14.63;79.63;101198.56;4976900;28;20038;-84
2023/05/21 03:57:36;;;;;;;9.85;6.10;;;;;;;14.70;78.78;101196.44;4994389;28;20030;-84
2023/05/21 04:00:03;;;;;;;14.00;6.20;;;;;;;14.69;78.51;101193.94;4976999;28;20411;-84
2023/05/21 04:02:28;;;;;;;9.40;5.82;;;;;;;14.67;79.04;101193.19;4977047;28;20126;-84
2023/05/21 04:04:54;;;;;;;7.47;5.15;;;;;;;14.54;78.48;101175.63;4960660;28;20488;-84
2023/05/21 04:07:21;;;;;;;9.77;5.43;;;;;;;14.58;77.90;101190.19;4976718;28;20034;-84
2023/05/21 04:09:46;;;;;;;8.32;5.45;;;;;;;14.58;78.07;101192.78;4976718;28;20026;-84
2023/05/21 04:12:12;;;;;;;9.80;6.35;;;;;;;14.56;78.26;101205.06;4976465;28;20109;-84
2023/05/21 04:14:37;;;;;;;10.18;5.38;;;;;;;14.61;78.34;101200.41;4976510;28;20477;-83
2023/05/21 04:17:06;;;;;;;8.18;5.75;;;;;;;14.69;78.34;101199.16;4992790;28;20042;-84
2023/05/21 04:19:31;;;;;;;11.80;5.75;;;;;;;14.65;78.67;101203.69;4993686;28;20022;-84
2023/05/21 04:21:57;;;;;;;10.18;6.32;;;;;;;14.53;78.49;101173.13;4992761;28;20034;-84
2023/05/21 04:24:23;;;;;;;12.13;5.47;;;;;;;14.64;78.67;101182.00;4992657;28;20034;-84
2023/05/21 04:26:48;;;;;;;9.75;6.07;;;;;;;14.68;77.85;101179.25;4976397;28;20037;-84
2023/05/21 04:29:19;;;;;;;9.75;6.10;;;;;;;14.87;78.11;101195.50;4976290;28;20407;-84
2023/05/21 04:31:46;;;;;;;12.73;7.18;;;;;;;14.90;77.99;101208.31;4976820;28;20030;-83
2023/05/21 04:34:11;;;;;;;9.85;6.22;;;;;;;14.93;78.72;101198.56;4976327;28;20027;-85
2023/05/21 04:36:37;;;;;;;11.13;6.32;;;;;;;14.97;78.05;101194.03;4975900;28;20057;-84
2023/05/21 04:39:04;;;;;;;9.15;6.47;;;;;;;15.01;78.38;101195.50;4992112;28;20080;-84
2023/05/21 04:41:30;;;;;;;11.43;6.47;;;;;;;15.11;77.91;101204.47;4976658;28;20507;-84
2023/05/21 04:43:55;;;;;;;12.20;5.80;;;;;;;15.10;78.06;101197.59;4992030;28;20034;-84
2023/05/21 04:46:24;;;;;;;15.32;7.35;;;;;;;15.04;77.84;101182.28;4975986;28;20037;-84
2023/05/21 04:48:53;;;;;;;9.30;6.32;;;;;;;15.06;78.06;101188.28;4976312;28;20029;-85
2023/05/21 04:51:23;;;;;;;8.43;6.07;;;;;;;15.09;78.12;101185.50;4960254;28;20053;-85
2023/05/21 04:53:49;;;;;;;13.90;6.20;;;;;;;15.27;77.73;101203.59;4992405;28;20029;-85
2023/05/21 04:56:17;;;;;;;9.30;6.15;;;;;;;15.26;77.94;101209.72;4959728;28;20023;-84
2023/05/21 04:58:44;;;;;;;10.60;6.15;;;;;;;15.25;78.02;101189.81;4992021;28;20050;-84
2023/05/21 05:01:11;;;;;;;9.27;6.80;;;;;;;15.25;77.81;101180.22;4975995;28;20114;-84
2023/05/21 05:03:37;;;;;;;9.05;5.75;;;;;;;15.31;77.26;101179.00;4992070;28;20027;-83
2023/05/21 05:06:03;;;;;;;9.30;5.82;;;;;;;15.40;77.84;101194.09;4991602;28;20423;-84
2023/05/21 05:08:29;;;;;;;14.18;5.72;;;;;;;15.42;78.20;101200.03;4975767;28;20026;-84
2023/05/21 05:10:54;;;;;;;10.82;6.47;;;;;;;15.48;77.78;101205.75;4991558;28;20037;-84
2023/05/21 05:13:19;;;;;;;12.90;6.68;;;;;;;15.47;78.56;101217.09;4991731;28;21027;-84
2023/05/21 05:15:45;;;;;;;10.45;6.88;;;;;;;15.44;78.79;101193.81;4991515;28;20038;-84
2023/05/21 05:18:11;;;;;;;10.10;5.75;;;;;;;15.62;78.03;101204.94;4992023;28;20125;-84
2023/05/21 05:20:36;;;;;;;9.93;6.22;;;;;;;15.63;77.82;101204.03;4975339;28;20101;-84
2023/05/21 05:23:03;;;;;;;9.18;5.55;;;;;;;15.75;77.78;101213.69;4991497;28;20057;-84
2023/05/21 05:25:29;;;;;;;9.63;6.47;;;;;;;15.56;77.82;101181.81;4991619;28;20022;-84
2023/05/21 05:27:55;;;;;;;10.18;6.35;;;;;;;15.72;77.98;101206.03;4991641;28;20412;-84
2023/05/21 05:30:20;;;;;;;11.60;6.72;;;;;;;15.77;77.59;101196.19;4959018;28;20116;-84
2023/05/21 05:32:46;;;;;;;14.15;6.95;;;;;;;15.86;77.62;101196.53;4975293;28;20034;-84
2023/05/21 05:35:11;;;;;;;10.93;6.10;;;;;;;15.90;77.50;101193.63;4974771;28;20030;-84
2023/05/21 05:37:37;;;;;;;12.95;6.57;;;;;;;15.95;77.38;101188.16;4975008;28;20060;-84
2023/05/21 05:40:04;;;;;;;11.25;6.50;;;;;;;16.16;76.73;101201.63;4990956;28;20138;-84
2023/05/21 05:42:29;;;;;;;16.05;6.35;;;;;;;16.16;76.69;101194.63;4991051;28;20034;-85
2023/05/21 05:44:55;;;;;;;10.70;6.43;;;;;;;16.22;76.64;101202.09;4958900;28;20558;-84
2023/05/21 05:47:21;;;;;;;10.18;6.47;;;;;;;16.35;76.05;101202.97;4991228;28;20462;-85
2023/05/21 05:49:46;;;;;;;10.60;6.60;;;;;;;16.33;75.75;101194.41;4974771;28;20023;-85
2023/05/21 05:52:12;;;;;;;9.35;6.25;;;;;;;16.40;75.93;101202.66;4974829;28;20030;-85
2023/05/21 05:54:37;;;;;;;9.50;6.65;;;;;;;16.55;75.96;101206.06;4974806;28;20511;-85
2023/05/21 05:57:03;;;;;;;11.48;7.03;;;;;;;16.55;75.71;101190.41;4975227;28;20113;-84
2023/05/21 05:59:28;;;;;;;10.18;6.72;;;;;;;16.50;75.43;101175.00;4974461;28;20034;-84
2023/05/21 06:01:54;;;;;;;10.50;6.63;;;;;;;16.71;75.37;101196.31;4990876;28;20053;-84
2023/05/21 06:04:19;;;;;;;13.18;7.35;;;;;;;16.90;75.09;101196.78;4991793;28;20061;-85
2023/05/21 06:06:46;;;;;;;10.10;7.10;;;;;;;16.96;74.43;101197.31;4974734;28;20037;-84
2023/05/21 06:09:11;;;;;;;12.45;7.18;;;;;;;17.02;74.24;101199.53;4990596;28;20551;-84
2023/05/21 06:11:37;;;;;;;9.20;6.30;;;;;;;17.14;73.72;101194.31;4974837;28;20035;-84
2023/05/21 06:14:02;;;;;;;10.35;7.03;;;;;;;17.12;74.26;101187.53;4991614;28;20487;-84
2023/05/21 06:16:30;;;;;;;10.75;7.32;;;;;;;17.26;74.13;101186.59;4990067;28;20037;-84
2023/05/21 06:18:56;;;;;;;10.73;6.75;;;;;;;17.44;72.78;101194.00;4990571;28;20037;-85
2023/05/21 06:21:21;;;;;;;10.77;6.72;;;;;;;17.46;72.46;101180.81;4974278;28;20452;-84
2023/05/21 06:23:47;;;;;;;9.75;6.63;;;;;;;17.63;71.88;101192.75;4974307;28;20034;-85
2023/05/21 06:26:12;;;;;;;10.55;7.43;;;;;;;17.75;71.92;101187.53;4974046;28;20499;-84
2023/05/21 06:28:38;;;;;;;10.35;6.15;;;;;;;17.86;72.03;101189.38;4990032;28;20061;-85
2023/05/21 06:31:03;;;;;;;9.75;6.82;;;;;;;17.91;71.19;101186.47;4973976;28;20030;-84
2023/05/21 06:33:28;;;;;;;20.30;7.45;;;;;;;17.99;70.62;101179.72;4990032;28;20026;-84
2023/05/21 06:35:54;;;;;;;10.05;7.10;;;;;;;18.12;70.70;101168.38;4974051;28;20100;-84
2023/05/21 06:38:20;;;;;;;11.95;6.68;;;;;;;18.26;69.90;101182.13;4974011;28;20081;-87
2023/05/21 06:40:46;;;;;;;13.90;7.70;;;;;;;18.47;68.66;101197.22;4990289;28;20412;-85
2023/05/21 06:43:12;;;;;;;17.10;8.00;;;;;;;18.51;67.82;101193.47;4974321;28;20038;-84
2023/05/21 06:45:38;;;;;;;10.00;6.30;;;;;;;18.76;68.21;101195.13;5006491;28;20072;-85
2023/05/21 06:48:04;;;;;;;11.32;7.70;;;;;;;18.80;68.21;101176.44;4973924;28;20034;-84
2023/05/21 06:50:29;;;;;;;11.32;5.97;;;;;;;19.11;65.32;101190.72;4957650;28;20073;-84
2023/05/21 06:52:54;;;;;;;9.50;5.88;;;;;;;19.29;62.89;101198.13;4973587;28;20492;-84
2023/05/21 06:55:20;;;;;;;9.75;6.50;;;;;;;19.26;61.93;101180.00;4990335;28;20408;-84
2023/05/21 06:57:45;;;;;;;8.60;5.95;;;;;;;19.49;61.78;101194.81;4990510;28;20057;-84
2023/05/21 07:00:11;;;;;;;11.50;6.28;;;;;;;19.55;60.82;101194.31;4990316;28;20495;-84
2023/05/21 07:02:37;;;;;;;9.40;6.22;;;;;;;19.62;59.26;101192.94;4974287;28;20034;-84
2023/05/21 07:05:02;;;;;;;8.38;5.82;;;;;;;19.74;58.29;101191.13;4991453;28;20032;-84
2023/05/21 07:07:28;;;;;;;10.00;6.38;;;;;;;19.77;58.11;101190.91;4990148;28;20032;-84
2023/05/21 07:09:53;;;;;;;11.10;6.30;;;;;;;19.62;58.79;101153.56;4990093;28;20037;-84
2023/05/21 07:12:19;;;;;;;9.57;6.65;;;;;;;20.03;58.39;101179.16;4989841;28;20030;-85
2023/05/21 07:14:44;;;;;;;9.55;6.30;;;;;;;20.16;58.40;101179.03;4990064;28;20480;-84
2023/05/21 07:17:10;;;;;;;9.32;6.20;;;;;;;20.33;57.48;101188.16;4991524;28;20508;-84
2023/05/21 07:19:36;;;;;;;8.52;6.10;;;;;;;20.25;57.64;101166.91;4991250;28;20026;-84
2023/05/21 07:22:02;;;;;;;7.88;5.43;;;;;;;20.39;56.98;101186.84;4974129;28;20034;-84
2023/05/21 07:24:28;;;;;;;13.93;6.88;;;;;;;20.19;57.75;101167.44;4974291;28;20037;-84
2023/05/21 07:26:53;;;;;;;11.10;6.20;;;;;;;20.20;58.19;101161.22;4973739;28;20034;-84
2023/05/21 07:29:19;;;;;;;10.38;5.82;;;;;;;20.34;57.55;101174.91;4992504;28;20411;-84
2023/05/21 07:31:44;;;;;;;9.60;5.78;;;;;;;20.50;57.41;101181.56;4977502;28;20034;-84
2023/05/21 07:34:10;;;;;;;7.00;5.50;;;;;;;20.68;57.01;101160.84;4993618;28;20503;-84
2023/05/21 07:36:35;;;;;;;7.70;5.22;;;;;;;20.85;56.38;101174.25;4960813;28;20050;-85
2023/05/21 07:39:01;;;;;;;11.48;6.35;;;;;;;20.89;55.04;101146.72;4977182;28;20041;-84
2023/05/21 07:41:26;;;;;;;9.45;6.00;;;;;;;20.99;54.79;101153.84;4993241;28;20412;-85
2023/05/21 07:43:52;;;;;;;11.38;5.65;;;;;;;21.28;55.08;101173.28;4994999;28;20056;-84
2023/05/21 07:46:17;;;;;;;9.48;6.38;;;;;;;21.25;54.27;101157.72;4993191;28;20041;-84
2023/05/21 07:48:43;;;;;;;8.68;6.05;;;;;;;21.31;54.62;101182.69;4993464;28;20030;-85
2023/05/21 07:51:09;;;;;;;9.43;6.55;;;;;;;21.22;55.62;101151.88;4993179;28;20034;-85
2023/05/21 07:53:34;;;;;;;11.73;6.32;;;;;;;21.43;55.36;101165.84;4993416;28;20037;-84
2023/05/21 07:56:00;;;;;;;9.68;6.18;;;;;;;21.54;54.79;101176.31;4976746;28;20089;-84
2023/05/21 07:58:25;;;;;;;8.13;6.00;;;;;;;21.64;55.30;101185.09;4993404;28;20030;-84
2023/05/21 08:00:51;;;;;;;13.07;6.07;;;;;;;21.65;54.65;101149.88;4977189;28;20521;-85
2023/05/21 08:03:17;;;;;;;7.72;5.93;;;;;;;21.82;54.39;101163.34;4994263;28;20416;-84
2023/05/21 08:05:49;;;;;;;7.60;5.70;;;;;;;21.95;54.38;101163.97;4993112;28;20492;-85
2023/05/21 08:08:16;;;;;;;9.30;6.05;;;;;;;21.97;53.95;101154.94;4977674;28;20416;-85
2023/05/21 08:10:41;;;;;;;10.07;5.70;;;;;;;22.15;53.48;101164.88;4976794;28;20173;-84
2023/05/21 08:13:06;;;;;;;7.75;5.82;;;;;;;22.28;53.72;101162.78;4993290;28;20030;-84
2023/05/21 08:15:32;;;;;;;9.73;5.15;;;;;;;22.47;53.42;101157.53;4992960;28;20045;-84
2023/05/21 08:17:57;;;;;;;14.82;5.50;;;;;;;22.64;50.38;101166.53;4993075;28;20118;-86
2023/05/21 08:20:23;;;;;;;11.50;5.28;;;;;;;22.69;50.96;101160.84;4976439;28;20045;-87
2023/05/21 08:22:48;;;;;;;7.03;4.72;;;;;;;22.73;50.16;101156.97;5009061;28;20026;-85
2023/05/21 08:25:14;;;;;;;8.85;5.00;;;;;;;22.81;48.80;101150.00;4976511;28;20035;-85
2023/05/21 08:27:40;;;;;;;7.05;4.47;;;;;;;23.05;47.84;101154.84;4993033;28;20484;-85
2023/05/21 08:30:06;;;;;;;6.18;4.00;;;;;;;23.04;46.73;101147.91;4992355;28;20057;-84
2023/05/21 08:32:31;;;;;;;4.97;3.90;;;;;;;23.15;46.97;101163.56;4976366;28;20045;-84
2023/05/21 08:34:57;;;;;;;6.10;4.55;;;;;;;23.28;47.16;101157.94;4976148;28;20408;-84
2023/05/21 08:37:22;;;;;;;6.25;4.15;;;;;;;23.41;46.05;101157.66;4959956;28;20054;-84
2023/05/21 08:39:47;;;;;;;7.13;4.20;;;;;;;23.41;45.19;101137.34;4992438;28;20023;-85
2023/05/21 08:42:27;;;;;;;6.75;4.63;;;;;;;23.67;46.05;101153.34;4993891;28;20038;-84
2023/05/21 08:44:53;;;;;;;6.68;4.03;;;;;;;23.74;45.12;101159.72;4992462;28;20018;-85
2023/05/21 08:47:18;;;;;;;6.15;3.80;;;;;;;23.68;44.70;101143.63;4959902;28;20033;-85
2023/05/21 08:49:44;;;;;;;5.85;4.15;;;;;;;23.78;45.09;101143.56;4992024;28;20093;-85
2023/05/21 08:52:10;;;;;;;6.30;4.30;;;;;;;23.94;45.56;101141.13;4976048;28;20034;-84
2023/05/21 08:54:36;;;;;;;5.85;4.22;;;;;;;23.98;44.44;101140.66;4975591;28;20026;-84
2023/05/21 08:57:01;;;;;;;5.63;3.80;;;;;;;24.07;44.21;101127.53;4975928;28;20060;-84
2023/05/21 08:59:27;;;;;;;5.70;4.00;;;;;;;24.18;44.63;101127.31;4975897;28;20060;-85
2023/05/21 09:01:52;;;;;;;6.32;4.45;;;;;;;24.47;42.66;101142.97;4959789;28;20400;-84
2023/05/21 09:04:18;;;;;;;7.38;4.28;;;;;;;24.55;42.97;101138.56;4992297;28;20407;-84
2023/05/21 09:06:43;;;;;;;5.68;4.35;;;;;;;24.82;43.43;101150.03;4975778;28;20118;-84
2023/05/21 09:09:32;;;;;;;7.38;4.10;;;;;;;24.86;41.88;101133.66;4959559;28;20031;-85
2023/05/21 09:11:57;;;;;;;7.00;4.05;;;;;;;24.83;42.13;101115.47;4992140;28;20073;-85
2023/05/21 09:14:22;;;;;;;4.80;3.80;;;;;;;24.92;41.85;101134.88;4992919;28;20030;-85
2023/05/21 09:16:48;;;;;;;8.90;4.43;;;;;;;25.06;41.79;101142.25;4975901;28;20022;-85
2023/05/21 09:19:13;;;;;;;5.60;3.92;;;;;;;25.17;40.95;101149.09;4991520;28;20102;-85
2023/05/21 09:21:39;;;;;;;4.32;3.42;;;;;;;25.05;41.11;101135.31;4975485;28;20546;-84
2023/05/21 09:24:05;;;;;;;6.93;3.83;;;;;;;25.17;40.59;101143.81;4991484;28;20484;-85
2023/05/21 09:26:30;;;;;;;5.40;4.07;;;;;;;25.09;41.34;101141.13;4959248;28;20026;-84
2023/05/21 09:28:57;;;;;;;6.57;3.83;;;;;;;24.98;41.58;101136.06;4958889;28;20037;-84
2023/05/21 09:31:23;;;;;;;4.68;3.78;;;;;;;25.06;40.70;101136.13;4975331;28;20102;-85
2023/05/21 09:33:48;;;;;;;7.68;4.25;;;;;;;25.22;40.45;101132.75;4991367;28;20034;-87
2023/05/21 09:36:15;;;;;;;5.97;4.13;;;;;;;25.35;41.18;101126.03;4991004;28;20078;-85
2023/05/21 09:38:40;;;;;;;5.47;3.75;;;;;;;25.46;40.70;101128.38;4959051;28;20058;-86
2023/05/21 09:41:05;;;;;;;5.35;3.83;;;;;;;25.63;40.06;101125.81;4991281;28;20042;-84
2023/05/21 09:43:31;;;;;;;5.45;3.90;;;;;;;25.71;40.89;101125.88;4991058;28;20414;-85
2023/05/21 09:45:58;;;;;;;5.93;4.30;;;;;;;25.84;40.11;101125.38;4991224;28;20061;-85
2023/05/21 09:48:42;;;;;;;4.70;3.47;;;;;;;26.00;39.38;101123.63;4974845;28;20080;-85
2023/05/21 09:51:12;;;;;;;5.03;3.70;;;;;;;25.94;39.74;101121.59;4975238;28;20022;-85
2023/05/21 09:53:56;;;;;;;6.78;3.35;;;;;;;25.93;38.76;101112.00;4958753;28;20072;-85
2023/05/21 09:56:31;;;;;;;5.82;4.28;;;;;;;25.93;38.85;101113.81;4959556;28;20037;-85
2023/05/21 09:59:03;;;;;;;6.80;3.83;;;;;;;25.93;39.53;101114.66;4974617;28;20029;-85
2023/05/21 10:01:29;;;;;;;15.82;4.00;;;;;;;25.98;39.93;101101.75;4992124;28;20113;-86
2023/05/21 10:03:56;;;;;;;4.85;3.92;;;;;;;26.16;40.57;101098.13;4990884;28;20022;-85
2023/05/21 10:06:26;;;;;;;4.82;3.53;;;;;;;26.26;39.23;101104.09;4991857;28;20422;-85
2023/05/21 10:08:56;;;;;;;4.95;3.50;;;;;;;26.43;39.42;101104.94;4991627;28;20112;-85
2023/05/21 10:11:24;;;;;;;4.95;3.60;;;;;;;26.63;39.69;101129.28;4990756;28;20041;-85
2023/05/21 10:13:55;;;;;;;7.65;4.53;;;;;;;26.53;39.26;101105.59;4990835;28;20026;-85
2023/05/21 10:16:21;;;;;;;;;;;;;;;26.59;39.66;101115.53;4975743;28;20109;-84
2023/05/21 10:18:47;;;;;;;6.25;4.00;;;;;;;26.63;39.40;101116.03;4974545;28;20377;-85
2023/05/21 10:21:13;;;;;;;5.47;3.88;;;;;;;26.78;39.64;101119.66;4990515;28;20389;-85
2023/05/21 10:23:39;;;;;;;5.07;3.90;;;;;;;26.73;39.21;101114.00;4958206;28;20085;-85
2023/05/21 10:26:04;;;;;;;4.53;3.35;;;;;;;26.75;40.04;101109.41;4990547;28;20045;-85
2023/05/21 10:28:30;;;;;;;5.25;3.58;;;;;;;26.88;39.28;101107.88;4974552;28;20484;-85
2023/05/21 10:30:55;;;;;;;7.45;4.05;;;;;;;27.00;38.58;101103.00;4989968;28;20411;-85
2023/05/21 10:33:22;;;;;;;5.03;3.85;;;;;;;27.10;37.96;101103.69;4974108;28;20038;-85
2023/05/21 10:35:48;;;;;;;4.30;3.38;;;;;;;27.04;37.30;101099.06;4973997;28;20050;-86
2023/05/21 10:38:13;;;;;;;6.45;3.97;;;;;;;26.63;37.95;101077.03;4974456;28;20037;-85
2023/05/21 10:40:39;;;;;;;4.80;3.50;;;;;;;26.74;38.30;101067.91;4974230;28;20030;-85
2023/05/21 10:43:20;;;;;;;6.00;4.47;;;;;;;27.06;38.40;101089.09;4989974;28;20515;-85
2023/05/21 10:46:05;;;;;;;9.75;4.00;;;;;;;27.34;38.01;101091.31;4990051;28;20515;-85
2023/05/21 10:48:53;;;;;;;4.85;3.83;;;;;;;27.29;37.40;101088.34;4991148;28;20054;-85
2023/05/21 10:51:35;;;;;;;7.18;4.43;;;;;;;27.21;38.53;101088.38;4963340;28;20550;-85
2023/05/21 10:54:25;;;;;;;6.10;3.72;;;;;;;27.08;38.08;101092.41;4990134;28;20022;-86
2023/05/21 10:56:53;;;;;;;5.13;3.78;;;;;;;27.28;37.65;101089.34;4990008;28;20034;-86
2023/05/21 10:59:20;;;;;;;7.05;3.50;;;;;;;27.13;37.59;101063.50;4991446;28;20395;-85
2023/05/21 11:01:48;;;;;;;5.95;3.53;;;;;;;27.37;37.72;101077.69;4991223;28;20030;-86
2023/05/21 11:04:14;;;;;;;4.45;3.30;;;;;;;27.39;36.05;101080.97;4992844;28;20034;-85
2023/05/21 11:06:39;;;;;;;5.75;3.55;;;;;;;27.24;35.57;101070.28;4993892;28;20031;-85
2023/05/21 11:09:12;;;;;;;4.63;3.58;;;;;;;27.30;36.96;101076.72;4977511;28;20030;-85
2023/05/21 11:11:44;;;;;;;7.10;4.18;;;;;;;27.30;36.88;101074.06;5010127;28;20062;-87
2023/05/21 11:14:26;;;;;;;8.18;3.78;;;;;;;27.35;36.19;101071.72;4993624;28;20396;-85
2023/05/21 11:16:51;;;;;;;6.22;3.60;;;;;;;27.30;36.91;101036.88;4993871;28;20109;-85
2023/05/21 11:19:17;;;;;;;5.07;3.40;;;;;;;27.50;36.69;101039.91;4961414;28;20480;-86